Time;durP1;ratioP1;P1;durP2;ratioP2;P2;SDS_P1;SDS_P2;PMS_P1;PMS_P2;Temp;Humidity;BMP_temperature;BMP_pressure;BME280_temperature;BME280_humidity;BME280_pressure;Samples;Min_cycle;Max_cycle;Signal;HPM_P1;HPM_P2
2022/08/13 00:00:37;;;;;;;4.65;2.40;;;20.60;92.40;;;;;;5028247;28;20030;-87
2022/08/13 00:03:12;;;;;;;5.45;2.83;;;20.70;92.70;;;;;;5028433;28;20030;-86
2022/08/13 00:05:38;;;;;;;3.65;2.63;;;20.70;93.10;;;;;;5011484;28;20053;-87
2022/08/13 00:08:04;;;;;;;3.70;2.60;;;20.60;93.00;;;;;;4995472;28;20021;-85
2022/08/13 00:10:32;;;;;;;5.32;2.60;;;20.60;93.40;;;;;;5035319;28;20033;-86
2022/08/13 00:12:58;;;;;;;4.53;2.70;;;20.60;93.50;;;;;;5000615;28;20374;-88
2022/08/13 00:15:31;;;;;;;3.42;2.63;;;20.60;93.70;;;;;;5033447;28;20030;-86
2022/08/13 00:18:02;;;;;;;2.60;2.10;;;20.60;93.20;;;;;;5032456;28;20037;-86
2022/08/13 00:20:32;;;;;;;4.47;2.40;;;20.50;94.10;;;;;;5032672;28;20022;-86
2022/08/13 00:22:58;;;;;;;4.00;2.72;;;20.50;94.10;;;;;;5033125;28;20018;-84
2022/08/13 00:25:24;;;;;;;6.30;2.80;;;20.50;94.90;;;;;;5033231;28;20037;-87
2022/08/13 00:27:56;;;;;;;3.83;2.40;;;20.50;95.70;;;;;;5032562;28;20082;-85
2022/08/13 00:30:33;;;;;;;4.97;2.13;;;20.50;96.10;;;;;;5033654;28;20026;-84
2022/08/13 00:33:05;;;;;;;7.28;2.45;;;20.50;96.50;;;;;;5016466;28;20042;-84
2022/08/13 00:35:33;;;;;;;4.45;2.40;;;20.50;96.80;;;;;;5038660;28;20030;-85
2022/08/13 00:37:59;;;;;;;5.97;2.75;;;20.40;97.00;;;;;;5021327;28;20029;-84
2022/08/13 00:40:27;;;;;;;3.03;2.40;;;20.40;97.10;;;;;;5038882;28;20056;-86
2022/08/13 00:43:02;;;;;;;7.57;2.22;;;20.40;97.10;;;;;;5039343;28;20030;-84
2022/08/13 00:45:30;;;;;;;7.05;2.42;;;20.40;97.30;;;;;;5039613;28;20013;-84
2022/08/13 00:50:42;;;;;;;7.22;2.60;;;20.30;98.00;;;;;;5039069;28;20117;-86
2022/08/13 00:53:18;;;;;;;7.10;2.60;;;20.20;98.30;;;;;;5022135;28;20018;-84
2022/08/13 00:55:48;;;;;;;3.58;2.42;;;20.20;98.60;;;;;;5040879;28;20048;-83
2022/08/13 00:58:19;;;;;;;6.43;2.55;;;20.10;98.70;;;;;;5023487;28;20045;-83
2022/08/13 01:00:56;;;;;;;3.80;2.70;;;20.10;99.00;;;;;;5006753;28;20026;-87
2022/08/13 01:03:23;;;;;;;4.40;2.70;;;20.00;99.40;;;;;;5013608;28;20032;-84
2022/08/13 01:05:50;;;;;;;4.32;2.53;;;20.00;99.70;;;;;;5030769;28;20041;-86
2022/08/13 01:08:18;;;;;;;3.10;2.60;;;20.00;99.90;;;;;;5013669;28;20533;-86
2022/08/13 01:10:47;;;;;;;3.30;2.60;;;20.00;99.90;;;;;;5031439;28;20029;-85
2022/08/13 01:13:14;;;;;;;5.20;2.30;;;20.00;99.90;;;;;;5012813;28;20029;-86
2022/08/13 01:15:42;;;;;;;7.15;2.58;;;20.00;99.90;;;;;;5013967;28;20021;-85
2022/08/13 01:18:13;;;;;;;8.70;2.53;;;19.90;99.90;;;;;;5034429;28;20026;-87
2022/08/13 01:20:49;;;;;;;5.93;2.58;;;19.90;99.90;;;;;;5028729;28;20041;-82
2022/08/13 01:23:17;;;;;;;3.45;2.38;;;19.90;99.90;;;;;;5012666;28;20060;-86
2022/08/13 01:25:44;;;;;;;4.15;2.80;;;19.80;99.90;;;;;;5031026;28;20101;-86
2022/08/13 01:28:16;;;;;;;4.28;2.30;;;19.80;99.90;;;;;;5021312;28;20053;-86
2022/08/13 01:30:46;;;;;;;4.40;2.70;;;19.80;99.90;;;;;;5022794;28;20046;-88
2022/08/13 01:33:17;;;;;;;5.47;2.67;;;19.80;99.90;;;;;;5007259;28;20076;-88
2022/08/13 01:35:45;;;;;;;5.43;2.35;;;19.80;99.90;;;;;;5040439;28;20014;-87
2022/08/13 01:38:12;;;;;;;4.45;2.65;;;19.80;99.90;;;;;;5023383;28;20026;-88
2022/08/13 01:40:38;;;;;;;7.78;2.90;;;19.70;99.90;;;;;;5023743;28;20089;-88
2022/08/13 01:43:05;;;;;;;7.50;2.35;;;19.70;99.90;;;;;;5007558;28;20010;-88
2022/08/13 01:45:31;;;;;;;4.47;2.50;;;19.70;99.90;;;;;;5023540;28;20097;-88
2022/08/13 01:50:42;;;;;;;6.60;2.95;;;19.60;99.90;;;;;;5040052;28;20105;-88
2022/08/13 01:53:13;;;;;;;4.78;3.08;;;19.60;99.90;;;;;;5006573;28;20064;-87
2022/08/13 01:55:43;;;;;;;3.17;2.65;;;19.60;99.90;;;;;;5022770;28;20034;-87
2022/08/13 01:58:19;;;;;;;5.47;2.78;;;19.50;99.90;;;;;;5022507;28;20017;-88
2022/08/13 02:00:49;;;;;;;5.25;2.75;;;19.50;99.90;;;;;;5023350;28;20037;-87
2022/08/13 02:03:17;;;;;;;5.93;2.90;;;19.50;99.90;;;;;;5040702;28;20053;-87
2022/08/13 02:05:44;;;;;;;3.95;2.88;;;19.50;99.90;;;;;;5007565;28;20017;-87
2022/08/13 02:08:12;;;;;;;7.50;2.92;;;19.40;99.90;;;;;;5023438;28;20030;-88
2022/08/13 02:10:41;;;;;;;5.53;3.05;;;19.40;99.90;;;;;;5006700;28;20048;-85
2022/08/13 02:13:13;;;;;;;3.30;2.78;;;19.40;99.90;;;;;;5002590;28;20029;-87
2022/08/13 02:15:41;;;;;;;4.82;3.25;;;19.40;99.90;;;;;;5017823;28;20100;-87
2022/08/13 02:18:12;;;;;;;6.88;3.35;;;19.30;99.90;;;;;;5004529;28;20064;-86
2022/08/13 02:20:38;;;;;;;5.65;2.97;;;19.30;99.90;;;;;;5004938;28;20052;-85
2022/08/13 02:23:06;;;;;;;5.75;3.00;;;19.30;99.90;;;;;;5020421;28;20025;-86
2022/08/13 02:25:34;;;;;;;11.90;3.10;;;19.30;99.90;;;;;;5019581;28;20029;-87
2022/08/13 02:28:00;;;;;;;5.72;3.30;;;19.20;99.90;;;;;;5002632;28;20010;-87
2022/08/13 02:30:28;;;;;;;12.57;4.05;;;19.20;99.90;;;;;;5020833;28;20049;-86
2022/08/13 02:32:56;;;;;;;5.15;3.08;;;19.20;99.90;;;;;;5018643;28;20030;-85
2022/08/13 02:35:23;;;;;;;9.02;3.17;;;19.20;99.90;;;;;;5020333;28;20084;-85
2022/08/13 02:37:50;;;;;;;9.52;3.55;;;19.20;99.90;;;;;;5020572;28;20061;-87
2022/08/13 02:43:02;;;;;;;4.35;3.22;;;19.40;99.90;;;;;;5020562;28;20030;-88
2022/08/13 02:45:28;;;;;;;3.97;3.15;;;19.30;99.90;;;;;;5019860;28;20025;-88
2022/08/13 02:47:56;;;;;;;5.70;3.33;;;19.30;99.90;;;;;;5019394;28;20037;-87
2022/08/13 02:50:24;;;;;;;4.43;3.03;;;19.30;99.90;;;;;;5021592;28;20025;-88
2022/08/13 02:52:51;;;;;;;6.85;3.30;;;19.30;99.90;;;;;;5022399;28;20101;-88
2022/08/13 02:55:22;;;;;;;6.43;3.42;;;19.30;99.90;;;;;;5039380;28;20010;-87
2022/08/13 02:57:50;;;;;;;10.85;3.40;;;19.30;99.90;;;;;;5022215;28;20034;-88
2022/08/13 03:00:19;;;;;;;8.82;3.78;;;19.30;99.90;;;;;;5005964;28;20013;-87
2022/08/13 03:02:45;;;;;;;8.25;3.35;;;19.20;99.90;;;;;;5021485;28;20022;-86
2022/08/13 03:05:19;;;;;;;6.32;3.53;;;19.20;99.90;;;;;;5037967;28;20036;-86
2022/08/13 03:07:47;;;;;;;6.50;3.60;;;19.20;99.90;;;;;;5035997;28;20110;-87
2022/08/13 03:10:16;;;;;;;10.95;3.22;;;19.10;99.90;;;;;;5018511;28;20069;-87
2022/08/13 03:12:45;;;;;;;3.88;3.10;;;19.10;99.90;;;;;;5019007;28;20101;-88
2022/08/13 03:15:13;;;;;;;4.50;3.50;;;19.10;99.90;;;;;;5001968;28;20034;-86
2022/08/13 03:17:41;;;;;;;5.45;3.20;;;19.10;99.90;;;;;;5016805;28;20030;-85
2022/08/13 03:20:15;;;;;;;6.05;3.92;;;19.00;99.90;;;;;;5033008;28;20025;-86
2022/08/13 03:22:53;;;;;;;6.28;3.20;;;19.00;99.90;;;;;;5034215;28;20142;-86
2022/08/13 03:25:22;;;;;;;4.78;3.35;;;19.00;99.90;;;;;;5034898;28;20098;-87
2022/08/13 03:27:50;;;;;;;5.88;3.60;;;19.00;99.90;;;;;;5020275;28;20018;-87
2022/08/13 03:30:19;;;;;;;9.30;3.42;;;18.90;99.90;;;;;;5020704;28;20042;-89
2022/08/13 03:32:46;;;;;;;8.77;3.60;;;18.90;99.90;;;;;;5021271;28;20026;-84
2022/08/13 03:35:16;;;;;;;4.88;3.90;;;18.90;99.90;;;;;;5005445;28;20045;-87
2022/08/13 03:37:47;;;;;;;6.57;3.50;;;18.80;99.90;;;;;;5005246;28;20035;-87
2022/08/13 03:40:15;;;;;;;8.98;3.70;;;18.80;99.90;;;;;;5038599;28;20022;-86
2022/08/13 03:42:41;;;;;;;6.55;3.60;;;18.80;99.90;;;;;;5021786;28;20021;-87
2022/08/13 03:45:09;;;;;;;4.68;3.30;;;18.80;99.90;;;;;;5004673;28;20044;-88
2022/08/13 03:47:36;;;;;;;8.68;3.47;;;18.80;99.90;;;;;;5005314;28;20022;-86
2022/08/13 03:50:05;;;;;;;6.50;4.18;;;18.80;99.90;;;;;;5038341;28;20022;-87
2022/08/13 03:52:33;;;;;;;6.15;3.45;;;18.80;99.90;;;;;;5021305;28;20038;-88
2022/08/13 03:55:00;;;;;;;6.53;3.47;;;18.80;99.90;;;;;;5021366;28;20089;-88
2022/08/13 03:57:27;;;;;;;7.38;3.33;;;18.80;99.90;;;;;;5005037;28;20038;-88
2022/08/13 03:59:54;;;;;;;5.05;3.60;;;18.70;99.90;;;;;;5021201;28;20018;-87
2022/08/13 04:02:20;;;;;;;11.25;3.47;;;18.80;99.90;;;;;;5038668;28;20017;-89
2022/08/13 04:04:47;;;;;;;5.28;3.60;;;18.70;99.90;;;;;;5005543;28;20022;-87
2022/08/13 04:07:18;;;;;;;4.97;3.58;;;18.80;99.90;;;;;;5034283;28;20069;-84
2022/08/13 04:09:45;;;;;;;7.60;3.72;;;18.80;99.90;;;;;;5015023;28;20516;-86
2022/08/13 04:12:12;;;;;;;7.00;3.35;;;18.80;99.90;;;;;;5016406;28;20030;-85
2022/08/13 04:14:42;;;;;;;5.57;3.42;;;18.70;99.90;;;;;;5015993;28;20074;-88
2022/08/13 04:17:10;;;;;;;5.25;3.47;;;18.80;99.90;;;;;;5017048;28;20038;-86
2022/08/13 04:19:40;;;;;;;6.38;3.90;;;18.70;99.90;;;;;;5017255;28;20026;-86
2022/08/13 04:22:10;;;;;;;5.43;3.58;;;18.80;99.90;;;;;;5020383;28;20032;-86
2022/08/13 04:24:36;;;;;;;6.55;3.33;;;18.80;99.90;;;;;;4996921;28;20033;-86
2022/08/13 04:27:04;;;;;;;5.57;3.33;;;18.80;99.90;;;;;;5010517;28;20022;-87
2022/08/13 04:29:30;;;;;;;5.30;3.17;;;18.90;99.90;;;;;;5009723;28;20095;-86
2022/08/13 04:31:57;;;;;;;6.78;4.10;;;18.90;99.90;;;;;;5010458;28;20069;-87
2022/08/13 04:34:25;;;;;;;7.68;4.07;;;18.90;99.90;;;;;;5010262;28;20022;-87
2022/08/13 04:36:52;;;;;;;4.90;3.72;;;19.00;99.90;;;;;;5009584;28;20037;-87
2022/08/13 04:39:19;;;;;;;7.13;3.78;;;19.00;99.90;;;;;;5009107;28;20022;-85
2022/08/13 04:41:45;;;;;;;9.57;3.80;;;19.10;99.90;;;;;;4993225;28;20037;-87
2022/08/13 04:44:12;;;;;;;8.02;3.95;;;19.10;99.90;;;;;;5012220;28;20037;-87
2022/08/13 04:46:39;;;;;;;5.57;3.80;;;19.20;99.90;;;;;;5030144;28;20018;-86
2022/08/13 04:49:06;;;;;;;5.75;4.15;;;19.20;99.90;;;;;;5013472;28;20041;-87
2022/08/13 04:51:35;;;;;;;7.97;3.83;;;19.20;99.90;;;;;;5015284;28;20041;-87
2022/08/13 04:54:01;;;;;;;4.75;3.70;;;19.30;99.90;;;;;;5014323;28;20053;-89
2022/08/13 04:56:29;;;;;;;7.93;3.97;;;19.30;99.90;;;;;;5003473;28;20021;-86
2022/08/13 04:58:55;;;;;;;6.40;3.55;;;19.30;99.90;;;;;;5000691;28;20052;-87
2022/08/13 05:01:22;;;;;;;6.47;3.88;;;19.30;99.90;;;;;;5034182;28;20030;-87
2022/08/13 05:03:48;;;;;;;8.25;4.00;;;19.40;99.90;;;;;;5002266;28;20056;-86
2022/08/13 05:06:21;;;;;;;9.02;4.20;;;19.40;99.90;;;;;;5034823;28;20040;-86
2022/08/13 05:08:49;;;;;;;7.60;4.35;;;19.50;99.90;;;;;;5036538;22;20030;-81
2022/08/13 05:11:18;;;;;;;6.68;4.22;;;19.50;99.90;;;;;;5003900;28;20038;-81
2022/08/13 05:13:45;;;;;;;6.75;3.80;;;19.60;99.90;;;;;;5020786;28;20033;-82
2022/08/13 05:16:16;;;;;;;7.03;4.28;;;19.70;99.90;;;;;;5020682;28;20022;-81
2022/08/13 05:18:50;;;;;;;8.43;4.03;;;19.80;99.90;;;;;;5020322;28;20065;-80
2022/08/13 05:21:16;;;;;;;5.75;3.88;;;20.00;99.90;;;;;;5003354;28;20065;-81
2022/08/13 05:23:42;;;;;;;8.45;4.40;;;20.10;99.90;;;;;;5003295;28;20048;-82
2022/08/13 05:26:10;;;;;;;11.48;5.20;;;20.30;99.90;;;;;;5020189;28;20426;-80
2022/08/13 05:28:37;;;;;;;5.32;3.97;;;20.50;99.90;;;;;;5019822;28;20007;-80
2022/08/13 05:31:03;;;;;;;11.63;4.57;;;20.70;99.90;;;;;;5017023;28;20066;-83
2022/08/13 05:33:30;;;;;;;8.15;4.20;;;20.90;99.90;;;;;;4995476;28;20034;-79
2022/08/13 05:35:58;;;;;;;6.00;4.47;;;21.00;99.90;;;;;;5000092;28;20034;-79
2022/08/13 05:38:27;;;;;;;6.30;4.30;;;21.10;99.90;;;;;;5017379;28;20056;-79
2022/08/13 05:40:56;;;;;;;5.40;4.47;;;21.10;99.90;;;;;;5015864;28;20030;-80
2022/08/13 05:43:25;;;;;;;8.68;4.43;;;21.20;99.90;;;;;;5014809;28;20062;-80
2022/08/13 05:45:59;;;;;;;9.77;4.20;;;21.30;99.90;;;;;;5003358;28;20034;-81
2022/08/13 05:48:27;;;;;;;10.80;4.15;;;21.40;99.90;;;;;;5000954;28;20390;-82
2022/08/13 05:50:53;;;;;;;6.82;4.35;;;21.50;99.90;;;;;;5001508;28;20470;-81
2022/08/13 05:53:19;;;;;;;5.97;4.22;;;21.70;99.90;;;;;;4986505;28;20069;-80
2022/08/13 05:55:45;;;;;;;6.88;4.60;;;21.70;99.90;;;;;;4999492;28;20506;-81
2022/08/13 05:58:12;;;;;;;10.73;4.00;;;21.70;99.90;;;;;;5001394;28;20038;-81
2022/08/13 06:03:29;;;;;;;10.68;4.80;;;21.50;99.90;;;;;;5000409;28;20030;-80
2022/08/13 06:05:56;;;;;;;7.22;4.70;;;21.50;99.90;;;;;;5000662;28;20146;-81
2022/08/13 06:08:30;;;;;;;5.47;4.57;;;21.50;99.90;;;;;;4966953;28;20118;-82
2022/08/13 06:11:01;;;;;;;6.75;5.05;;;21.60;99.90;;;;;;4983239;28;20037;-81
2022/08/13 06:13:28;;;;;;;6.43;5.25;;;21.50;99.90;;;;;;5001141;28;20031;-82
2022/08/13 06:16:01;;;;;;;7.38;5.25;;;21.60;99.90;;;;;;4983087;28;20026;-82
2022/08/13 06:18:32;;;;;;;7.15;5.45;;;21.70;99.90;;;;;;4984735;28;20031;-81
2022/08/13 06:21:01;;;;;;;11.38;5.95;;;21.70;99.90;;;;;;5001910;28;20091;-80
2022/08/13 06:23:30;;;;;;;12.05;5.97;;;21.70;99.90;;;;;;5002190;28;20023;-81
2022/08/13 06:25:57;;;;;;;9.77;5.40;;;21.70;99.90;;;;;;5002248;28;20042;-82
2022/08/13 06:28:31;;;;;;;7.50;5.80;;;21.80;99.90;;;;;;5001814;28;20037;-82
2022/08/13 06:31:00;;;;;;;10.88;6.32;;;21.90;99.90;;;;;;4984866;28;20045;-82
2022/08/13 06:33:31;;;;;;;6.90;5.82;;;22.00;99.90;;;;;;5002672;28;20030;-80
2022/08/13 06:36:08;;;;;;;8.18;6.10;;;22.10;99.90;;;;;;5003236;28;20026;-82
2022/08/13 06:38:37;;;;;;;12.02;6.65;;;22.30;99.90;;;;;;4985873;28;20045;-82
2022/08/13 06:41:05;;;;;;;7.93;6.60;;;22.40;99.90;;;;;;5003111;28;20045;-81
2022/08/13 06:43:35;;;;;;;10.32;6.60;;;22.50;99.70;;;;;;4986471;28;20431;-81
2022/08/13 06:46:05;;;;;;;11.57;6.15;;;22.60;99.40;;;;;;4988218;28;20034;-81
2022/08/13 06:48:35;;;;;;;9.82;6.10;;;22.80;99.20;;;;;;5002164;28;20041;-81
2022/08/13 06:51:06;;;;;;;7.45;5.65;;;22.80;99.00;;;;;;4986086;28;20034;-83
2022/08/13 06:53:35;;;;;;;7.05;5.72;;;22.90;98.90;;;;;;5004745;28;20034;-80
2022/08/13 06:56:07;;;;;;;8.48;5.90;;;23.00;98.80;;;;;;5003217;28;20023;-82
2022/08/13 06:58:35;;;;;;;11.55;6.28;;;22.90;98.70;;;;;;5002317;28;20038;-81
2022/08/13 07:01:01;;;;;;;9.18;6.45;;;22.80;99.00;;;;;;5003288;28;20018;-81
2022/08/13 07:03:30;;;;;;;8.73;5.55;;;22.80;99.00;;;;;;4993125;28;20034;-82
2022/08/13 07:05:56;;;;;;;9.23;6.75;;;22.80;99.10;;;;;;5008676;28;20054;-82
2022/08/13 07:08:27;;;;;;;10.50;6.80;;;22.80;99.00;;;;;;5004775;28;20105;-82
2022/08/13 07:13:45;;;;;;;9.27;6.63;;;22.80;98.90;;;;;;5018205;28;20034;-82
2022/08/13 07:16:16;;;;;;;9.98;5.65;;;22.90;98.80;;;;;;5018183;28;20106;-82
2022/08/13 07:18:46;;;;;;;6.47;5.70;;;22.90;98.90;;;;;;5017177;28;20015;-83
2022/08/13 07:21:14;;;;;;;12.18;6.35;;;22.90;99.00;;;;;;5001193;28;20045;-82
2022/08/13 07:23:42;;;;;;;7.38;5.88;;;23.00;99.00;;;;;;5017878;28;20022;-82
2022/08/13 07:26:09;;;;;;;9.20;6.38;;;23.10;98.90;;;;;;5017515;28;20130;-81
2022/08/13 07:28:35;;;;;;;8.57;6.15;;;23.10;98.90;;;;;;5000921;28;20038;-81
2022/08/13 07:31:05;;;;;;;9.65;6.43;;;23.20;99.00;;;;;;5000518;28;20058;-81
2022/08/13 07:33:36;;;;;;;8.90;6.70;;;23.20;98.90;;;;;;5000536;28;20034;-82
2022/08/13 07:36:08;;;;;;;9.55;6.15;;;23.20;98.90;;;;;;5018119;28;20038;-82
2022/08/13 07:38:35;;;;;;;11.15;6.78;;;23.20;98.90;;;;;;4999577;28;20039;-81
2022/08/13 07:41:03;;;;;;;10.85;6.57;;;23.40;99.10;;;;;;5013882;28;20037;-82
2022/08/13 07:43:36;;;;;;;8.77;6.38;;;23.40;98.80;;;;;;4985679;28;20026;-82
2022/08/13 07:46:07;;;;;;;10.93;7.38;;;23.40;98.80;;;;;;5002166;28;20076;-82
2022/08/13 07:48:35;;;;;;;9.15;6.60;;;23.50;98.90;;;;;;5004016;28;20037;-82
2022/08/13 07:51:03;;;;;;;10.65;6.63;;;23.60;98.80;;;;;;5002992;28;20018;-82
2022/08/13 07:53:29;;;;;;;10.60;7.07;;;23.70;98.60;;;;;;5004435;28;20106;-82
2022/08/13 07:55:56;;;;;;;10.98;6.93;;;23.80;98.50;;;;;;5003313;28;20062;-83
2022/08/13 07:58:28;;;;;;;7.65;6.75;;;23.90;98.40;;;;;;5000733;28;20015;-83
2022/08/13 08:00:57;;;;;;;8.65;7.07;;;24.00;98.30;;;;;;5006161;28;20041;-84
2022/08/13 08:03:46;;;;;;;10.18;6.32;;;24.00;97.90;;;;;;5012874;28;20030;-81
2022/08/13 08:06:15;;;;;;;11.23;6.40;;;24.10;97.90;;;;;;4994816;28;20049;-81
2022/08/13 08:08:42;;;;;;;6.97;6.28;;;24.20;97.70;;;;;;5013302;28;20022;-80
2022/08/13 08:12:30;;;;;;;8.93;6.50;;;24.30;97.70;;;;;;4995231;28;20039;-86
2022/08/13 08:13:59;;;;;;;7.18;6.15;;;24.60;97.00;;;;;;5012313;28;20109;-83
2022/08/13 08:16:30;;;;;;;9.90;6.03;;;24.60;96.70;;;;;;5012501;28;20023;-85
2022/08/13 08:18:58;;;;;;;11.90;7.50;;;24.80;96.50;;;;;;5013423;28;20049;-85
2022/08/13 08:21:25;;;;;;;13.73;7.18;;;24.90;96.10;;;;;;4999632;28;20033;-82
2022/08/13 08:23:56;;;;;;;8.15;6.35;;;25.00;96.20;;;;;;4997636;28;20038;-84
2022/08/13 08:26:26;;;;;;;10.95;6.63;;;25.00;95.90;;;;;;5013772;28;20046;-84
2022/08/13 08:28:54;;;;;;;9.60;6.20;;;25.20;95.60;;;;;;4994937;28;20015;-82
2022/08/13 08:31:21;;;;;;;9.70;6.20;;;25.30;95.50;;;;;;5005698;28;20103;-84
2022/08/13 08:33:47;;;;;;;11.02;8.23;;;25.50;95.50;;;;;;5009357;28;20023;-83
2022/08/13 08:36:14;;;;;;;9.25;7.15;;;25.30;95.40;;;;;;5011211;28;20264;-83
2022/08/13 08:44:32;;;;;;;9.35;6.70;;;25.40;95.50;;;;;;4993673;28;20088;-81
2022/08/13 08:47:00;;;;;;;9.63;6.80;;;25.60;95.20;;;;;;5009962;28;20113;-83
2022/08/13 08:49:28;;;;;;;9.18;7.07;;;25.80;95.10;;;;;;4988922;28;20395;-82
2022/08/13 08:51:54;;;;;;;12.10;6.65;;;25.80;94.80;;;;;;5005377;28;20104;-84
2022/08/13 08:54:22;;;;;;;9.93;7.00;;;25.80;94.90;;;;;;4986958;28;20022;-82
2022/08/13 08:56:55;;;;;;;8.95;6.47;;;25.80;94.90;;;;;;5002460;28;20454;-83
2022/08/13 08:59:29;;;;;;;15.05;7.45;;;25.80;94.80;;;;;;5001846;28;20033;-81
2022/08/13 09:01:56;;;;;;;9.15;6.97;;;25.90;94.90;;;;;;5001828;28;20030;-82
2022/08/13 09:04:28;;;;;;;11.30;7.20;;;26.00;94.70;;;;;;5001369;28;20061;-82
2022/08/13 09:06:58;;;;;;;8.63;6.97;;;26.00;94.60;;;;;;5003686;28;20030;-80
2022/08/13 09:09:25;;;;;;;9.23;7.32;;;25.90;94.80;;;;;;5003553;28;20027;-82
2022/08/13 09:11:55;;;;;;;10.70;7.20;;;25.80;95.00;;;;;;5009958;28;20030;-83
2022/08/13 09:14:30;;;;;;;9.77;7.13;;;25.80;95.00;;;;;;5007088;28;20035;-83
2022/08/13 09:16:57;;;;;;;;;;;25.80;95.00;;;;;;4991839;28;20030;-83
2022/08/13 09:19:24;;;;;;;11.25;7.28;;;25.80;95.00;;;;;;5005826;28;19993;-85
2022/08/13 09:21:51;;;;;;;10.85;7.07;;;25.90;95.00;;;;;;5007085;28;20038;-81
2022/08/13 09:24:21;;;;;;;8.88;7.05;;;25.90;94.90;;;;;;5005349;28;20037;-81
2022/08/13 09:26:51;;;;;;;8.80;7.40;;;25.80;94.90;;;;;;5005003;28;20030;-81
2022/08/13 09:29:20;;;;;;;12.32;7.55;;;25.90;94.90;;;;;;4988992;28;20027;-82
2022/08/13 09:31:50;;;;;;;11.95;7.40;;;26.00;94.80;;;;;;5008541;28;20030;-84
2022/08/13 09:34:17;;;;;;;8.30;6.43;;;26.50;94.40;;;;;;4991366;28;20039;-81
2022/08/13 09:36:45;;;;;;;10.40;6.53;;;26.90;93.90;;;;;;5005989;28;20026;-84
2022/08/13 09:39:48;;;;;;;10.43;6.88;;;27.30;93.30;;;;;;5003088;28;20078;-84
2022/08/13 09:42:23;;;;;;;8.98;6.15;;;27.80;92.60;;;;;;5001983;28;20051;-82
2022/08/13 09:44:53;;;;;;;7.97;6.30;;;28.70;91.60;;;;;;4988906;28;20053;-81
2022/08/13 09:47:19;;;;;;;13.00;6.45;;;29.40;90.50;;;;;;5009895;28;20041;-83
2022/08/13 09:49:48;;;;;;;10.32;6.80;;;30.50;88.20;;;;;;5018179;28;20019;-84
2022/08/13 09:52:14;;;;;;;10.50;6.60;;;30.90;85.30;;;;;;5001893;28;20061;-82
2022/08/13 09:54:41;;;;;;;8.20;6.35;;;32.00;82.20;;;;;;5018558;28;20030;-82
2022/08/13 09:57:07;;;;;;;8.23;6.05;;;32.10;80.80;;;;;;5002515;28;20026;-83
2022/08/13 09:59:33;;;;;;;7.03;6.00;;;32.20;79.30;;;;;;5017489;28;20034;-85
2022/08/13 10:02:05;;;;;;;8.35;5.57;;;32.80;77.80;;;;;;5000511;28;20022;-84
2022/08/13 10:04:32;;;;;;;8.30;5.95;;;33.80;75.50;;;;;;5017944;28;20042;-85
2022/08/13 10:06:59;;;;;;;7.55;6.07;;;34.50;73.40;;;;;;5001904;28;20027;-84
2022/08/13 10:09:26;;;;;;;8.70;6.30;;;34.90;71.30;;;;;;5018654;28;20015;-83
2022/08/13 10:11:55;;;;;;;7.55;6.00;;;35.60;69.70;;;;;;5018766;28;20529;-84
2022/08/13 10:14:21;;;;;;;7.90;6.13;;;36.30;67.80;;;;;;5002184;28;20035;-82
2022/08/13 10:16:47;;;;;;;11.88;5.38;;;36.00;66.90;;;;;;5018802;28;20074;-84
2022/08/13 10:19:13;;;;;;;12.50;5.88;;;35.60;67.30;;;;;;5017541;28;20048;-84
2022/08/13 10:21:39;;;;;;;6.88;5.70;;;35.60;66.90;;;;;;5001644;28;20054;-84
2022/08/13 10:24:05;;;;;;;14.13;5.70;;;35.40;66.70;;;;;;5018302;28;20074;-82
2022/08/13 10:26:31;;;;;;;6.85;5.43;;;35.50;66.80;;;;;;5015100;28;20030;-83
2022/08/13 10:28:57;;;;;;;7.80;5.85;;;35.60;66.20;;;;;;5001455;28;20077;-83
2022/08/13 10:31:27;;;;;;;7.03;6.30;;;35.90;65.60;;;;;;5013364;28;20031;-82
2022/08/13 10:33:58;;;;;;;10.48;6.80;;;35.70;65.30;;;;;;4981779;28;20079;-82
2022/08/13 10:36:25;;;;;;;7.78;6.38;;;35.60;64.40;;;;;;5016054;28;20033;-83
2022/08/13 10:38:51;;;;;;;11.52;6.43;;;34.70;65.10;;;;;;5000318;28;20049;-83
2022/08/13 10:41:18;;;;;;;11.45;6.55;;;33.80;66.90;;;;;;5017186;28;20022;-82
2022/08/13 10:43:43;;;;;;;9.75;6.57;;;33.60;67.30;;;;;;5015127;28;20010;-82
2022/08/13 10:46:16;;;;;;;8.40;6.20;;;33.70;67.10;;;;;;5014474;28;20151;-80
2022/08/13 10:48:43;;;;;;;8.35;6.05;;;33.50;67.60;;;;;;5011645;28;20030;-81
2022/08/13 10:51:09;;;;;;;10.30;6.45;;;33.10;67.60;;;;;;4994866;28;20027;-83
2022/08/13 10:56:20;;;;;;;8.05;6.72;;;33.10;68.20;;;;;;5011083;28;20042;-81
2022/08/13 10:58:46;;;;;;;8.55;6.80;;;33.00;67.70;;;;;;5009949;28;20022;-81
2022/08/13 11:01:12;;;;;;;10.15;6.13;;;32.80;67.60;;;;;;5009812;28;20045;-83
2022/08/13 11:03:38;;;;;;;9.60;6.57;;;32.70;68.10;;;;;;5010067;28;20033;-82
2022/08/13 11:06:06;;;;;;;6.95;6.25;;;32.80;68.00;;;;;;5010980;28;20038;-81
2022/08/13 11:08:36;;;;;;;9.35;5.80;;;33.10;67.30;;;;;;5009280;28;20026;-81
2022/08/13 11:11:04;;;;;;;11.55;6.32;;;33.90;65.90;;;;;;5036914;23;20102;-85
2022/08/13 11:13:31;;;;;;;7.55;5.63;;;34.60;65.00;;;;;;5001748;28;20018;-86
2022/08/13 11:15:58;;;;;;;7.25;5.53;;;35.20;62.70;;;;;;5018654;28;20037;-85
2022/08/13 11:18:26;;;;;;;11.40;5.88;;;35.50;61.80;;;;;;5001425;28;20014;-84
2022/08/13 11:21:07;;;;;;;12.02;6.05;;;35.60;62.10;;;;;;5018378;28;20019;-85
2022/08/13 11:23:35;;;;;;;8.27;6.15;;;35.40;61.70;;;;;;5001520;28;20026;-85
2022/08/13 11:26:01;;;;;;;7.68;6.32;;;35.10;62.20;;;;;;5001578;28;20082;-84
2022/08/13 11:28:27;;;;;;;7.47;5.72;;;35.20;62.00;;;;;;5018148;28;20050;-85
2022/08/13 11:30:55;;;;;;;7.53;6.43;;;35.60;61.70;;;;;;5018150;28;20043;-84
2022/08/13 11:33:23;;;;;;;7.75;6.45;;;36.10;61.50;;;;;;5018145;28;20110;-83
2022/08/13 11:35:49;;;;;;;9.50;6.18;;;35.60;62.10;;;;;;5018086;28;20042;-85
2022/08/13 11:38:16;;;;;;;7.80;6.43;;;35.00;63.00;;;;;;5001010;28;20030;-84
2022/08/13 11:40:47;;;;;;;8.63;6.40;;;35.20;62.70;;;;;;5017997;28;20018;-85
2022/08/13 11:43:13;;;;;;;8.95;5.93;;;34.60;62.20;;;;;;5001381;28;20050;-83
2022/08/13 11:45:38;;;;;;;8.48;6.07;;;34.00;63.10;;;;;;5001416;28;20039;-84
2022/08/13 11:48:08;;;;;;;11.68;6.18;;;33.80;63.60;;;;;;5000947;28;20021;-84
2022/08/13 11:50:34;;;;;;;8.52;6.28;;;34.00;63.50;;;;;;5017874;28;20019;-86
2022/08/13 11:53:01;;;;;;;6.57;5.72;;;34.80;62.60;;;;;;5017790;28;20022;-85
2022/08/13 11:55:27;;;;;;;6.93;5.78;;;36.10;62.10;;;;;;5018048;28;20038;-84
2022/08/13 11:58:01;;;;;;;7.00;5.55;;;36.90;59.70;;;;;;5017384;28;20046;-83
2022/08/13 12:00:27;;;;;;;;;;;37.20;58.30;;;;;;5001537;28;20027;-87
2022/08/13 12:02:53;;;;;;;6.63;5.68;;;36.90;58.70;;;;;;5016653;28;19973;-85
2022/08/13 12:05:19;;;;;;;10.18;6.72;;;36.10;58.80;;;;;;5015024;28;20045;-87
2022/08/13 12:07:45;;;;;;;6.82;6.13;;;35.50;59.80;;;;;;5002517;28;20037;-86
2022/08/13 12:10:12;;;;;;;7.65;5.65;;;34.90;61.20;;;;;;5018328;28;20094;-87
2022/08/13 12:12:39;;;;;;;8.55;5.53;;;34.80;61.20;;;;;;5018245;28;20019;-87
2022/08/13 12:15:06;;;;;;;7.10;5.80;;;35.20;60.20;;;;;;5018837;28;20022;-86
2022/08/13 12:17:32;;;;;;;8.30;6.20;;;36.30;58.50;;;;;;5018091;28;20022;-85
2022/08/13 12:19:58;;;;;;;7.25;5.60;;;37.10;57.60;;;;;;5003920;28;20049;-86
2022/08/13 12:22:24;;;;;;;7.22;5.97;;;37.80;56.90;;;;;;5017443;28;20034;-86
2022/08/13 12:24:51;;;;;;;8.23;5.80;;;38.60;56.50;;;;;;5003234;28;20038;-87
2022/08/13 12:27:18;;;;;;;9.80;5.90;;;38.00;55.60;;;;;;5002765;28;20045;-86
2022/08/13 12:29:44;;;;;;;7.40;5.55;;;37.00;55.80;;;;;;5002155;28;20069;-86
2022/08/13 12:32:10;;;;;;;6.60;5.70;;;37.30;55.70;;;;;;5018874;28;20079;-87
2022/08/13 12:34:37;;;;;;;7.43;5.93;;;37.40;55.20;;;;;;5016389;28;20129;-86
2022/08/13 12:37:03;;;;;;;7.00;5.60;;;37.40;55.10;;;;;;4996583;28;20029;-87
2022/08/13 12:39:29;;;;;;;14.02;6.78;;;37.60;55.50;;;;;;4998904;28;20019;-86
2022/08/13 12:41:55;;;;;;;7.35;5.75;;;37.80;55.70;;;;;;5003818;28;20019;-84
2022/08/13 12:44:21;;;;;;;6.68;6.00;;;37.90;54.90;;;;;;5004078;28;20026;-84
2022/08/13 12:46:47;;;;;;;6.22;5.63;;;37.20;55.60;;;;;;5016419;28;20014;-87
2022/08/13 12:49:13;;;;;;;10.23;6.82;;;37.10;56.00;;;;;;4992815;28;20041;-87
2022/08/13 12:51:38;;;;;;;8.40;7.50;;;37.00;56.10;;;;;;4991826;28;20030;-86
2022/08/13 12:54:04;;;;;;;11.00;6.93;;;37.80;55.60;;;;;;5010153;28;20035;-87
2022/08/13 12:56:30;;;;;;;10.38;7.38;;;37.30;56.10;;;;;;5009680;28;20022;-87
2022/08/13 12:58:56;;;;;;;8.65;7.32;;;36.60;56.40;;;;;;5007985;28;20178;-87
2022/08/13 13:01:22;;;;;;;11.68;6.97;;;35.90;57.20;;;;;;5009820;28;20026;-88
2022/08/13 13:03:48;;;;;;;8.10;6.95;;;36.20;56.90;;;;;;4993110;28;20445;-89
2022/08/13 13:06:16;;;;;;;7.57;6.78;;;36.60;56.70;;;;;;5010995;28;20026;-86
2022/08/13 13:08:43;;;;;;;8.15;6.45;;;37.10;56.00;;;;;;4992864;28;20457;-86
2022/08/13 13:11:10;;;;;;;8.30;6.43;;;37.60;55.60;;;;;;5008689;28;20045;-87
2022/08/13 13:13:36;;;;;;;9.93;6.90;;;37.30;56.00;;;;;;4991903;28;20034;-87